sensor_id;sensor_type;location;lat;lon;timestamp;P1;durP1;ratioP1;P2;durP2;ratioP2
49444;SDS011;35323;43.080;-81.378;2023-05-10T00:01:38;7.53;;;2.65;;
49444;SDS011;35323;43.080;-81.378;2023-05-10T00:04:06;3.08;;;1.58;;
49444;SDS011;35323;43.080;-81.378;2023-05-10T00:06:34;13.15;;;1.98;;
49444;SDS011;35323;43.080;-81.378;2023-05-10T00:09:01;1.90;;;1.08;;
49444;SDS011;35323;43.080;-81.378;2023-05-10T00:11:30;3.33;;;1.05;;
49444;SDS011;35323;43.080;-81.378;2023-05-10T00:13:57;2.67;;;1.33;;
49444;SDS011;35323;43.080;-81.378;2023-05-10T00:16:25;7.20;;;1.48;;
49444;SDS011;35323;43.080;-81.378;2023-05-10T00:18:53;1.13;;;1.02;;
49444;SDS011;35323;43.080;-81.378;2023-05-10T00:21:22;2.53;;;1.02;;
49444;SDS011;35323;43.080;-81.378;2023-05-10T00:23:50;1.42;;;0.95;;
49444;SDS011;35323;43.080;-81.378;2023-05-10T00:26:18;1.80;;;1.05;;
49444;SDS011;35323;43.080;-81.378;2023-05-10T00:28:45;1.38;;;0.80;;
49444;SDS011;35323;43.080;-81.378;2023-05-10T00:31:13;5.28;;;1.38;;
49444;SDS011;35323;43.080;-81.378;2023-05-10T00:33:43;4.85;;;1.60;;
49444;SDS011;35323;43.080;-81.378;2023-05-10T00:36:11;3.92;;;1.20;;
49444;SDS011;35323;43.080;-81.378;2023-05-10T00:38:38;3.70;;;1.15;;
49444;SDS011;35323;43.080;-81.378;2023-05-10T00:41:06;3.83;;;1.00;;
49444;SDS011;35323;43.080;-81.378;2023-05-10T00:43:33;3.10;;;0.90;;
49444;SDS011;35323;43.080;-81.378;2023-05-10T00:46:01;4.05;;;1.63;;
49444;SDS011;35323;43.080;-81.378;2023-05-10T00:48:29;3.60;;;1.88;;
49444;SDS011;35323;43.080;-81.378;2023-05-10T00:50:56;8.80;;;1.58;;
49444;SDS011;35323;43.080;-81.378;2023-05-10T00:53:25;3.42;;;1.70;;
49444;SDS011;35323;43.080;-81.378;2023-05-10T00:55:52;8.15;;;1.38;;
49444;SDS011;35323;43.080;-81.378;2023-05-10T00:58:20;7.35;;;1.48;;
49444;SDS011;35323;43.080;-81.378;2023-05-10T01:00:52;6.40;;;1.70;;
49444;SDS011;35323;43.080;-81.378;2023-05-10T01:03:25;8.45;;;2.63;;
49444;SDS011;35323;43.080;-81.378;2023-05-10T01:05:56;4.57;;;3.10;;
49444;SDS011;35323;43.080;-81.378;2023-05-10T01:08:24;6.75;;;2.03;;
49444;SDS011;35323;43.080;-81.378;2023-05-10T01:10:52;6.50;;;1.40;;
49444;SDS011;35323;43.080;-81.378;2023-05-10T01:16:00;2.47;;;1.00;;
49444;SDS011;35323;43.080;-81.378;2023-05-10T01:18:31;2.33;;;1.10;;
49444;SDS011;35323;43.080;-81.378;2023-05-10T01:21:43;2.28;;;1.55;;
49444;SDS011;35323;43.080;-81.378;2023-05-10T01:34:08;2.80;;;1.40;;
49444;SDS011;35323;43.080;-81.378;2023-05-10T01:36:42;4.55;;;1.30;;
49444;SDS011;35323;43.080;-81.378;2023-05-10T01:39:20;9.00;;;2.88;;
49444;SDS011;35323;43.080;-81.378;2023-05-10T01:42:10;1.23;;;1.13;;
49444;SDS011;35323;43.080;-81.378;2023-05-10T01:44:58;2.15;;;1.00;;
49444;SDS011;35323;43.080;-81.378;2023-05-10T01:47:44;2.67;;;1.15;;
49444;SDS011;35323;43.080;-81.378;2023-05-10T01:50:22;3.10;;;1.17;;
49444;SDS011;35323;43.080;-81.378;2023-05-10T01:52:53;1.85;;;1.08;;
49444;SDS011;35323;43.080;-81.378;2023-05-10T01:55:22;1.73;;;0.70;;
49444;SDS011;35323;43.080;-81.378;2023-05-10T01:57:55;3.20;;;1.30;;
49444;SDS011;35323;43.080;-81.378;2023-05-10T02:00:24;1.95;;;1.10;;
49444;SDS011;35323;43.080;-81.378;2023-05-10T02:02:52;1.98;;;1.63;;
49444;SDS011;35323;43.080;-81.378;2023-05-10T02:05:20;4.30;;;1.08;;
49444;SDS011;35323;43.080;-81.378;2023-05-10T02:07:48;4.28;;;1.30;;
49444;SDS011;35323;43.080;-81.378;2023-05-10T02:10:16;5.63;;;1.33;;
49444;SDS011;35323;43.080;-81.378;2023-05-10T02:12:45;2.47;;;1.17;;
49444;SDS011;35323;43.080;-81.378;2023-05-10T02:15:16;2.90;;;1.70;;
49444;SDS011;35323;43.080;-81.378;2023-05-10T02:17:45;3.50;;;1.98;;
49444;SDS011;35323;43.080;-81.378;2023-05-10T02:20:14;1.23;;;1.17;;
49444;SDS011;35323;43.080;-81.378;2023-05-10T02:22:43;2.25;;;1.67;;
49444;SDS011;35323;43.080;-81.378;2023-05-10T02:25:12;4.05;;;2.08;;
49444;SDS011;35323;43.080;-81.378;2023-05-10T02:27:41;3.83;;;1.65;;
49444;SDS011;35323;43.080;-81.378;2023-05-10T02:30:09;5.60;;;1.48;;
49444;SDS011;35323;43.080;-81.378;2023-05-10T02:32:37;2.30;;;1.50;;
49444;SDS011;35323;43.080;-81.378;2023-05-10T02:35:05;3.42;;;1.05;;
49444;SDS011;35323;43.080;-81.378;2023-05-10T02:37:33;2.63;;;1.25;;
49444;SDS011;35323;43.080;-81.378;2023-05-10T02:40:04;2.20;;;1.05;;
49444;SDS011;35323;43.080;-81.378;2023-05-10T02:42:33;1.95;;;1.75;;
49444;SDS011;35323;43.080;-81.378;2023-05-10T02:45:05;3.50;;;1.20;;
49444;SDS011;35323;43.080;-81.378;2023-05-10T02:47:34;5.07;;;1.30;;
49444;SDS011;35323;43.080;-81.378;2023-05-10T02:50:02;3.65;;;1.85;;
49444;SDS011;35323;43.080;-81.378;2023-05-10T02:52:33;4.50;;;1.85;;
49444;SDS011;35323;43.080;-81.378;2023-05-10T02:55:04;2.83;;;1.08;;
49444;SDS011;35323;43.080;-81.378;2023-05-10T02:57:33;7.35;;;1.95;;
49444;SDS011;35323;43.080;-81.378;2023-05-10T03:00:01;2.65;;;1.35;;
49444;SDS011;35323;43.080;-81.378;2023-05-10T03:02:30;1.67;;;1.20;;
49444;SDS011;35323;43.080;-81.378;2023-05-10T03:04:57;2.25;;;1.25;;
49444;SDS011;35323;43.080;-81.378;2023-05-10T03:07:25;4.35;;;2.55;;
49444;SDS011;35323;43.080;-81.378;2023-05-10T03:09:53;4.82;;;1.45;;
49444;SDS011;35323;43.080;-81.378;2023-05-10T03:12:24;3.25;;;1.45;;
49444;SDS011;35323;43.080;-81.378;2023-05-10T03:15:00;4.10;;;1.92;;
49444;SDS011;35323;43.080;-81.378;2023-05-10T03:17:35;3.75;;;1.52;;
49444;SDS011;35323;43.080;-81.378;2023-05-10T03:20:08;2.83;;;2.03;;
49444;SDS011;35323;43.080;-81.378;2023-05-10T03:22:40;3.05;;;2.20;;
49444;SDS011;35323;43.080;-81.378;2023-05-10T03:25:10;6.00;;;1.42;;
49444;SDS011;35323;43.080;-81.378;2023-05-10T03:27:42;2.97;;;1.80;;
49444;SDS011;35323;43.080;-81.378;2023-05-10T03:30:11;4.87;;;1.97;;
49444;SDS011;35323;43.080;-81.378;2023-05-10T03:32:39;4.43;;;2.03;;
49444;SDS011;35323;43.080;-81.378;2023-05-10T03:35:10;3.25;;;1.98;;
49444;SDS011;35323;43.080;-81.378;2023-05-10T03:37:39;4.50;;;1.40;;
49444;SDS011;35323;43.080;-81.378;2023-05-10T03:40:06;1.92;;;1.77;;
49444;SDS011;35323;43.080;-81.378;2023-05-10T03:42:34;4.90;;;1.92;;
49444;SDS011;35323;43.080;-81.378;2023-05-10T03:45:02;0.98;;;0.80;;
49444;SDS011;35323;43.080;-81.378;2023-05-10T03:47:30;3.10;;;2.17;;
49444;SDS011;35323;43.080;-81.378;2023-05-10T03:49:58;3.63;;;1.30;;
49444;SDS011;35323;43.080;-81.378;2023-05-10T03:52:26;3.03;;;1.15;;
49444;SDS011;35323;43.080;-81.378;2023-05-10T03:54:53;4.97;;;1.45;;
49444;SDS011;35323;43.080;-81.378;2023-05-10T03:57:21;2.28;;;0.93;;
49444;SDS011;35323;43.080;-81.378;2023-05-10T03:59:48;2.22;;;1.40;;
49444;SDS011;35323;43.080;-81.378;2023-05-10T04:02:16;8.02;;;2.00;;
49444;SDS011;35323;43.080;-81.378;2023-05-10T04:04:44;1.90;;;1.17;;
49444;SDS011;35323;43.080;-81.378;2023-05-10T04:07:11;3.60;;;1.45;;
49444;SDS011;35323;43.080;-81.378;2023-05-10T04:09:39;2.20;;;1.08;;
49444;SDS011;35323;43.080;-81.378;2023-05-10T04:12:06;1.08;;;0.98;;
49444;SDS011;35323;43.080;-81.378;2023-05-10T04:14:36;1.70;;;1.60;;
49444;SDS011;35323;43.080;-81.378;2023-05-10T04:17:04;2.80;;;1.45;;
49444;SDS011;35323;43.080;-81.378;2023-05-10T04:19:32;6.15;;;1.75;;
49444;SDS011;35323;43.080;-81.378;2023-05-10T04:22:01;2.90;;;1.60;;
49444;SDS011;35323;43.080;-81.378;2023-05-10T04:24:29;2.22;;;2.05;;
49444;SDS011;35323;43.080;-81.378;2023-05-10T04:26:56;3.58;;;1.23;;
49444;SDS011;35323;43.080;-81.378;2023-05-10T04:29:24;5.75;;;1.80;;
49444;SDS011;35323;43.080;-81.378;2023-05-10T04:31:54;3.25;;;1.58;;
49444;SDS011;35323;43.080;-81.378;2023-05-10T04:34:23;2.63;;;1.75;;
49444;SDS011;35323;43.080;-81.378;2023-05-10T04:36:51;2.60;;;1.83;;
49444;SDS011;35323;43.080;-81.378;2023-05-10T04:39:19;1.83;;;1.40;;
49444;SDS011;35323;43.080;-81.378;2023-05-10T04:41:46;9.20;;;2.72;;
49444;SDS011;35323;43.080;-81.378;2023-05-10T04:44:14;4.32;;;1.98;;
49444;SDS011;35323;43.080;-81.378;2023-05-10T04:46:41;4.32;;;1.85;;
49444;SDS011;35323;43.080;-81.378;2023-05-10T04:49:09;2.05;;;1.20;;
49444;SDS011;35323;43.080;-81.378;2023-05-10T04:51:37;2.83;;;1.83;;
49444;SDS011;35323;43.080;-81.378;2023-05-10T04:54:04;2.63;;;1.35;;
49444;SDS011;35323;43.080;-81.378;2023-05-10T04:56:32;3.13;;;1.63;;
49444;SDS011;35323;43.080;-81.378;2023-05-10T04:59:00;1.63;;;1.52;;
49444;SDS011;35323;43.080;-81.378;2023-05-10T05:01:27;1.77;;;1.20;;
49444;SDS011;35323;43.080;-81.378;2023-05-10T05:03:55;2.03;;;1.20;;
49444;SDS011;35323;43.080;-81.378;2023-05-10T05:06:23;4.40;;;1.88;;
49444;SDS011;35323;43.080;-81.378;2023-05-10T05:08:52;1.83;;;1.25;;
49444;SDS011;35323;43.080;-81.378;2023-05-10T05:11:19;3.10;;;1.25;;
49444;SDS011;35323;43.080;-81.378;2023-05-10T05:13:48;2.95;;;1.80;;
49444;SDS011;35323;43.080;-81.378;2023-05-10T05:16:15;2.70;;;1.90;;
49444;SDS011;35323;43.080;-81.378;2023-05-10T05:18:43;1.73;;;1.30;;
49444;SDS011;35323;43.080;-81.378;2023-05-10T05:21:15;1.52;;;1.00;;
49444;SDS011;35323;43.080;-81.378;2023-05-10T05:23:43;4.60;;;2.00;;
49444;SDS011;35323;43.080;-81.378;2023-05-10T05:26:10;2.60;;;2.10;;
49444;SDS011;35323;43.080;-81.378;2023-05-10T05:28:38;4.53;;;2.13;;
49444;SDS011;35323;43.080;-81.378;2023-05-10T05:31:07;3.55;;;1.20;;
49444;SDS011;35323;43.080;-81.378;2023-05-10T05:33:34;2.33;;;1.27;;
49444;SDS011;35323;43.080;-81.378;2023-05-10T05:36:03;2.17;;;1.65;;
49444;SDS011;35323;43.080;-81.378;2023-05-10T05:38:30;1.83;;;1.70;;
49444;SDS011;35323;43.080;-81.378;2023-05-10T05:40:58;6.50;;;2.55;;
49444;SDS011;35323;43.080;-81.378;2023-05-10T05:43:26;5.68;;;2.45;;
49444;SDS011;35323;43.080;-81.378;2023-05-10T05:45:53;5.97;;;2.45;;
49444;SDS011;35323;43.080;-81.378;2023-05-10T05:48:21;2.67;;;1.80;;
49444;SDS011;35323;43.080;-81.378;2023-05-10T05:50:49;2.55;;;1.85;;
49444;SDS011;35323;43.080;-81.378;2023-05-10T05:53:16;4.20;;;2.60;;
49444;SDS011;35323;43.080;-81.378;2023-05-10T05:55:53;4.10;;;2.60;;
49444;SDS011;35323;43.080;-81.378;2023-05-10T05:58:21;6.47;;;1.58;;
49444;SDS011;35323;43.080;-81.378;2023-05-10T06:00:49;4.18;;;2.28;;
49444;SDS011;35323;43.080;-81.378;2023-05-10T06:03:17;3.05;;;2.38;;
49444;SDS011;35323;43.080;-81.378;2023-05-10T06:05:45;3.60;;;2.00;;
49444;SDS011;35323;43.080;-81.378;2023-05-10T06:08:13;4.32;;;1.75;;
49444;SDS011;35323;43.080;-81.378;2023-05-10T06:10:40;7.38;;;3.13;;
49444;SDS011;35323;43.080;-81.378;2023-05-10T06:13:08;4.25;;;2.47;;
49444;SDS011;35323;43.080;-81.378;2023-05-10T06:15:35;2.13;;;1.70;;
49444;SDS011;35323;43.080;-81.378;2023-05-10T06:18:03;3.30;;;2.42;;
49444;SDS011;35323;43.080;-81.378;2023-05-10T06:20:30;5.38;;;1.98;;
49444;SDS011;35323;43.080;-81.378;2023-05-10T06:23:01;5.95;;;3.45;;
49444;SDS011;35323;43.080;-81.378;2023-05-10T06:25:28;3.95;;;2.13;;
49444;SDS011;35323;43.080;-81.378;2023-05-10T06:27:56;3.35;;;2.20;;
49444;SDS011;35323;43.080;-81.378;2023-05-10T06:30:25;4.50;;;2.67;;
49444;SDS011;35323;43.080;-81.378;2023-05-10T06:32:55;6.50;;;2.83;;
49444;SDS011;35323;43.080;-81.378;2023-05-10T06:35:23;5.05;;;2.33;;
49444;SDS011;35323;43.080;-81.378;2023-05-10T06:37:51;4.85;;;2.38;;
49444;SDS011;35323;43.080;-81.378;2023-05-10T06:40:19;3.03;;;2.47;;
49444;SDS011;35323;43.080;-81.378;2023-05-10T06:42:47;6.68;;;2.58;;
49444;SDS011;35323;43.080;-81.378;2023-05-10T06:45:15;4.63;;;1.90;;
49444;SDS011;35323;43.080;-81.378;2023-05-10T06:47:43;7.38;;;2.60;;
49444;SDS011;35323;43.080;-81.378;2023-05-10T06:50:11;6.45;;;2.45;;
49444;SDS011;35323;43.080;-81.378;2023-05-10T06:52:38;3.97;;;2.10;;
49444;SDS011;35323;43.080;-81.378;2023-05-10T06:55:06;6.75;;;3.38;;
49444;SDS011;35323;43.080;-81.378;2023-05-10T06:57:35;5.35;;;2.97;;
49444;SDS011;35323;43.080;-81.378;2023-05-10T07:00:03;3.80;;;3.30;;
49444;SDS011;35323;43.080;-81.378;2023-05-10T07:02:33;3.22;;;2.85;;
49444;SDS011;35323;43.080;-81.378;2023-05-10T07:05:01;4.40;;;2.33;;
49444;SDS011;35323;43.080;-81.378;2023-05-10T07:07:29;4.95;;;2.85;;
49444;SDS011;35323;43.080;-81.378;2023-05-10T07:09:56;4.28;;;3.55;;
49444;SDS011;35323;43.080;-81.378;2023-05-10T07:12:24;2.35;;;1.98;;
49444;SDS011;35323;43.080;-81.378;2023-05-10T07:14:52;7.78;;;2.58;;
49444;SDS011;35323;43.080;-81.378;2023-05-10T07:17:19;4.13;;;2.78;;
49444;SDS011;35323;43.080;-81.378;2023-05-10T07:19:47;3.70;;;2.50;;
49444;SDS011;35323;43.080;-81.378;2023-05-10T07:22:14;4.28;;;2.85;;
49444;SDS011;35323;43.080;-81.378;2023-05-10T07:24:42;5.85;;;2.85;;
49444;SDS011;35323;43.080;-81.378;2023-05-10T07:27:10;6.15;;;2.80;;
49444;SDS011;35323;43.080;-81.378;2023-05-10T07:29:38;4.00;;;2.85;;
49444;SDS011;35323;43.080;-81.378;2023-05-10T07:32:06;4.25;;;2.95;;
49444;SDS011;35323;43.080;-81.378;2023-05-10T07:34:33;3.72;;;3.15;;
49444;SDS011;35323;43.080;-81.378;2023-05-10T07:37:01;4.90;;;3.13;;
49444;SDS011;35323;43.080;-81.378;2023-05-10T07:39:29;5.18;;;2.78;;
49444;SDS011;35323;43.080;-81.378;2023-05-10T07:41:56;4.13;;;3.17;;
49444;SDS011;35323;43.080;-81.378;2023-05-10T07:44:24;5.25;;;3.55;;
49444;SDS011;35323;43.080;-81.378;2023-05-10T07:46:51;5.43;;;3.10;;
49444;SDS011;35323;43.080;-81.378;2023-05-10T07:49:19;3.70;;;3.35;;
49444;SDS011;35323;43.080;-81.378;2023-05-10T07:51:47;3.35;;;3.05;;
49444;SDS011;35323;43.080;-81.378;2023-05-10T07:54:14;4.22;;;3.83;;
49444;SDS011;35323;43.080;-81.378;2023-05-10T07:56:42;9.07;;;3.70;;
49444;SDS011;35323;43.080;-81.378;2023-05-10T07:59:14;3.78;;;3.47;;
49444;SDS011;35323;43.080;-81.378;2023-05-10T08:01:42;7.80;;;4.43;;
49444;SDS011;35323;43.080;-81.378;2023-05-10T08:04:10;7.65;;;5.10;;
49444;SDS011;35323;43.080;-81.378;2023-05-10T08:06:39;4.05;;;3.75;;
49444;SDS011;35323;43.080;-81.378;2023-05-10T08:09:06;7.68;;;4.03;;
49444;SDS011;35323;43.080;-81.378;2023-05-10T08:11:34;4.03;;;3.33;;
49444;SDS011;35323;43.080;-81.378;2023-05-10T08:14:02;7.38;;;4.72;;
49444;SDS011;35323;43.080;-81.378;2023-05-10T08:16:30;5.07;;;4.18;;
49444;SDS011;35323;43.080;-81.378;2023-05-10T08:18:57;5.00;;;4.60;;
49444;SDS011;35323;43.080;-81.378;2023-05-10T08:21:25;5.93;;;4.32;;
49444;SDS011;35323;43.080;-81.378;2023-05-10T08:23:53;5.68;;;4.88;;
49444;SDS011;35323;43.080;-81.378;2023-05-10T08:26:20;4.63;;;3.85;;
49444;SDS011;35323;43.080;-81.378;2023-05-10T08:28:48;6.07;;;4.20;;
49444;SDS011;35323;43.080;-81.378;2023-05-10T08:31:16;4.40;;;3.40;;
49444;SDS011;35323;43.080;-81.378;2023-05-10T08:33:43;4.05;;;3.47;;
49444;SDS011;35323;43.080;-81.378;2023-05-10T08:36:12;4.22;;;3.83;;
49444;SDS011;35323;43.080;-81.378;2023-05-10T08:38:41;3.83;;;3.50;;
49444;SDS011;35323;43.080;-81.378;2023-05-10T08:41:09;4.45;;;4.03;;
49444;SDS011;35323;43.080;-81.378;2023-05-10T08:43:37;5.07;;;4.05;;
49444;SDS011;35323;43.080;-81.378;2023-05-10T08:46:17;6.68;;;4.20;;
49444;SDS011;35323;43.080;-81.378;2023-05-10T08:48:45;5.25;;;2.78;;
49444;SDS011;35323;43.080;-81.378;2023-05-10T08:51:14;6.30;;;4.05;;
49444;SDS011;35323;43.080;-81.378;2023-05-10T08:53:41;4.10;;;3.45;;
49444;SDS011;35323;43.080;-81.378;2023-05-10T08:56:09;4.78;;;4.28;;
49444;SDS011;35323;43.080;-81.378;2023-05-10T08:58:37;4.90;;;3.60;;
49444;SDS011;35323;43.080;-81.378;2023-05-10T09:01:05;3.22;;;2.97;;
49444;SDS011;35323;43.080;-81.378;2023-05-10T09:03:33;6.28;;;3.72;;
49444;SDS011;35323;43.080;-81.378;2023-05-10T09:06:00;6.15;;;4.10;;
49444;SDS011;35323;43.080;-81.378;2023-05-10T09:08:28;6.38;;;4.22;;
49444;SDS011;35323;43.080;-81.378;2023-05-10T09:10:57;2.95;;;2.53;;
49444;SDS011;35323;43.080;-81.378;2023-05-10T09:13:25;4.82;;;3.55;;
49444;SDS011;35323;43.080;-81.378;2023-05-10T09:15:53;2.50;;;2.15;;
49444;SDS011;35323;43.080;-81.378;2023-05-10T09:18:21;5.68;;;2.83;;
49444;SDS011;35323;43.080;-81.378;2023-05-10T09:20:48;4.47;;;2.72;;
49444;SDS011;35323;43.080;-81.378;2023-05-10T09:23:16;3.97;;;3.47;;
49444;SDS011;35323;43.080;-81.378;2023-05-10T09:25:44;8.57;;;2.83;;
49444;SDS011;35323;43.080;-81.378;2023-05-10T09:28:12;4.55;;;2.38;;
49444;SDS011;35323;43.080;-81.378;2023-05-10T09:30:40;3.78;;;2.80;;
49444;SDS011;35323;43.080;-81.378;2023-05-10T09:33:07;5.25;;;3.15;;
49444;SDS011;35323;43.080;-81.378;2023-05-10T09:35:35;6.82;;;2.95;;
49444;SDS011;35323;43.080;-81.378;2023-05-10T09:38:05;7.05;;;2.35;;
49444;SDS011;35323;43.080;-81.378;2023-05-10T09:40:33;3.70;;;2.80;;
49444;SDS011;35323;43.080;-81.378;2023-05-10T09:43:02;5.20;;;4.30;;
49444;SDS011;35323;43.080;-81.378;2023-05-10T09:45:30;10.93;;;3.63;;
49444;SDS011;35323;43.080;-81.378;2023-05-10T09:48:01;1.98;;;1.75;;
49444;SDS011;35323;43.080;-81.378;2023-05-10T09:50:29;2.67;;;2.17;;
49444;SDS011;35323;43.080;-81.378;2023-05-10T09:52:58;4.03;;;2.55;;
49444;SDS011;35323;43.080;-81.378;2023-05-10T09:58:00;11.70;;;3.75;;
49444;SDS011;35323;43.080;-81.378;2023-05-10T10:00:28;9.65;;;4.70;;
49444;SDS011;35323;43.080;-81.378;2023-05-10T10:02:59;8.45;;;5.13;;
49444;SDS011;35323;43.080;-81.378;2023-05-10T10:05:30;8.02;;;2.92;;
49444;SDS011;35323;43.080;-81.378;2023-05-10T10:07:58;9.48;;;4.25;;
49444;SDS011;35323;43.080;-81.378;2023-05-10T10:10:26;8.30;;;4.63;;
49444;SDS011;35323;43.080;-81.378;2023-05-10T10:12:55;6.25;;;3.72;;
49444;SDS011;35323;43.080;-81.378;2023-05-10T10:15:23;5.38;;;3.05;;
49444;SDS011;35323;43.080;-81.378;2023-05-10T10:17:51;30.48;;;5.07;;
49444;SDS011;35323;43.080;-81.378;2023-05-10T10:20:20;10.32;;;4.10;;
49444;SDS011;35323;43.080;-81.378;2023-05-10T10:22:48;7.63;;;3.70;;
49444;SDS011;35323;43.080;-81.378;2023-05-10T10:25:16;7.68;;;3.90;;
49444;SDS011;35323;43.080;-81.378;2023-05-10T10:30:39;9.80;;;5.13;;
49444;SDS011;35323;43.080;-81.378;2023-05-10T10:35:55;11.90;;;3.67;;
49444;SDS011;35323;43.080;-81.378;2023-05-10T10:38:23;12.07;;;3.60;;
49444;SDS011;35323;43.080;-81.378;2023-05-10T10:41:06;7.65;;;4.97;;
49444;SDS011;35323;43.080;-81.378;2023-05-10T10:43:35;23.20;;;4.00;;
49444;SDS011;35323;43.080;-81.378;2023-05-10T10:46:14;11.80;;;5.70;;
49444;SDS011;35323;43.080;-81.378;2023-05-10T10:48:48;8.45;;;3.95;;
49444;SDS011;35323;43.080;-81.378;2023-05-10T10:51:15;41.28;;;9.25;;
49444;SDS011;35323;43.080;-81.378;2023-05-10T10:53:43;12.73;;;5.93;;
49444;SDS011;35323;43.080;-81.378;2023-05-10T10:56:11;11.70;;;5.95;;
49444;SDS011;35323;43.080;-81.378;2023-05-10T10:58:40;11.73;;;5.47;;
49444;SDS011;35323;43.080;-81.378;2023-05-10T11:01:17;13.55;;;5.70;;
49444;SDS011;35323;43.080;-81.378;2023-05-10T11:06:42;26.70;;;9.63;;
49444;SDS011;35323;43.080;-81.378;2023-05-10T11:09:10;23.65;;;7.60;;
49444;SDS011;35323;43.080;-81.378;2023-05-10T11:11:51;11.60;;;5.65;;
49444;SDS011;35323;43.080;-81.378;2023-05-10T11:16:51;20.65;;;7.05;;
49444;SDS011;35323;43.080;-81.378;2023-05-10T11:19:19;41.20;;;10.65;;
49444;SDS011;35323;43.080;-81.378;2023-05-10T11:21:51;26.48;;;8.52;;
49444;SDS011;35323;43.080;-81.378;2023-05-10T11:24:20;27.38;;;7.82;;
49444;SDS011;35323;43.080;-81.378;2023-05-10T11:26:51;14.90;;;4.78;;
49444;SDS011;35323;43.080;-81.378;2023-05-10T11:29:18;21.02;;;5.55;;
49444;SDS011;35323;43.080;-81.378;2023-05-10T11:31:47;9.70;;;4.78;;
49444;SDS011;35323;43.080;-81.378;2023-05-10T11:34:25;13.88;;;4.35;;
49444;SDS011;35323;43.080;-81.378;2023-05-10T11:36:54;7.45;;;4.63;;
49444;SDS011;35323;43.080;-81.378;2023-05-10T11:39:31;12.07;;;3.78;;
49444;SDS011;35323;43.080;-81.378;2023-05-10T11:41:59;9.00;;;4.75;;
49444;SDS011;35323;43.080;-81.378;2023-05-10T11:44:30;12.60;;;5.05;;
49444;SDS011;35323;43.080;-81.378;2023-05-10T11:47:01;7.20;;;4.72;;
49444;SDS011;35323;43.080;-81.378;2023-05-10T11:49:30;9.10;;;4.07;;
49444;SDS011;35323;43.080;-81.378;2023-05-10T11:52:05;6.70;;;3.63;;
49444;SDS011;35323;43.080;-81.378;2023-05-10T11:54:33;12.25;;;4.75;;
49444;SDS011;35323;43.080;-81.378;2023-05-10T11:57:02;7.70;;;4.35;;
49444;SDS011;35323;43.080;-81.378;2023-05-10T11:59:30;12.80;;;4.28;;
49444;SDS011;35323;43.080;-81.378;2023-05-10T12:01:57;7.43;;;4.30;;
49444;SDS011;35323;43.080;-81.378;2023-05-10T12:04:25;12.10;;;4.30;;
49444;SDS011;35323;43.080;-81.378;2023-05-10T12:06:56;10.55;;;4.30;;
49444;SDS011;35323;43.080;-81.378;2023-05-10T12:09:24;7.82;;;3.45;;
49444;SDS011;35323;43.080;-81.378;2023-05-10T12:12:08;6.15;;;3.83;;
49444;SDS011;35323;43.080;-81.378;2023-05-10T12:14:36;4.30;;;2.72;;
49444;SDS011;35323;43.080;-81.378;2023-05-10T12:17:03;6.20;;;3.28;;
49444;SDS011;35323;43.080;-81.378;2023-05-10T12:19:40;11.80;;;3.88;;
49444;SDS011;35323;43.080;-81.378;2023-05-10T12:22:08;10.10;;;5.82;;
49444;SDS011;35323;43.080;-81.378;2023-05-10T12:24:38;8.18;;;3.10;;
49444;SDS011;35323;43.080;-81.378;2023-05-10T12:27:07;4.47;;;3.65;;
49444;SDS011;35323;43.080;-81.378;2023-05-10T12:29:35;5.50;;;3.15;;
49444;SDS011;35323;43.080;-81.378;2023-05-10T12:32:03;6.38;;;2.33;;
49444;SDS011;35323;43.080;-81.378;2023-05-10T12:34:31;5.90;;;2.78;;
49444;SDS011;35323;43.080;-81.378;2023-05-10T12:36:59;14.43;;;4.03;;
49444;SDS011;35323;43.080;-81.378;2023-05-10T12:42:08;5.85;;;2.65;;
49444;SDS011;35323;43.080;-81.378;2023-05-10T12:44:35;3.67;;;2.72;;
49444;SDS011;35323;43.080;-81.378;2023-05-10T12:47:03;4.30;;;2.70;;
49444;SDS011;35323;43.080;-81.378;2023-05-10T12:49:30;4.25;;;3.42;;
49444;SDS011;35323;43.080;-81.378;2023-05-10T12:51:58;4.90;;;3.38;;
49444;SDS011;35323;43.080;-81.378;2023-05-10T12:54:26;3.67;;;1.92;;
49444;SDS011;35323;43.080;-81.378;2023-05-10T12:56:53;7.00;;;2.60;;
49444;SDS011;35323;43.080;-81.378;2023-05-10T12:59:21;4.82;;;2.60;;
49444;SDS011;35323;43.080;-81.378;2023-05-10T13:01:49;4.00;;;3.08;;
49444;SDS011;35323;43.080;-81.378;2023-05-10T13:04:17;5.93;;;2.05;;
49444;SDS011;35323;43.080;-81.378;2023-05-10T13:06:45;3.72;;;2.22;;
49444;SDS011;35323;43.080;-81.378;2023-05-10T13:09:12;2.75;;;1.90;;
49444;SDS011;35323;43.080;-81.378;2023-05-10T13:11:40;5.07;;;2.08;;
49444;SDS011;35323;43.080;-81.378;2023-05-10T13:14:08;6.90;;;2.15;;
49444;SDS011;35323;43.080;-81.378;2023-05-10T13:16:35;4.00;;;2.05;;
49444;SDS011;35323;43.080;-81.378;2023-05-10T13:19:03;2.75;;;2.22;;
49444;SDS011;35323;43.080;-81.378;2023-05-10T13:21:31;3.05;;;1.83;;
49444;SDS011;35323;43.080;-81.378;2023-05-10T13:23:58;2.25;;;1.60;;
49444;SDS011;35323;43.080;-81.378;2023-05-10T13:26:27;4.18;;;1.83;;
49444;SDS011;35323;43.080;-81.378;2023-05-10T13:28:55;3.47;;;3.03;;
49444;SDS011;35323;43.080;-81.378;2023-05-10T13:31:22;6.72;;;3.20;;
49444;SDS011;35323;43.080;-81.378;2023-05-10T13:33:50;8.35;;;3.58;;
49444;SDS011;35323;43.080;-81.378;2023-05-10T13:36:18;9.75;;;3.88;;
49444;SDS011;35323;43.080;-81.378;2023-05-10T13:38:45;8.07;;;2.60;;
49444;SDS011;35323;43.080;-81.378;2023-05-10T13:41:16;4.13;;;2.72;;
49444;SDS011;35323;43.080;-81.378;2023-05-10T13:43:43;7.22;;;3.65;;
49444;SDS011;35323;43.080;-81.378;2023-05-10T13:46:11;4.95;;;1.67;;
49444;SDS011;35323;43.080;-81.378;2023-05-10T13:48:39;0.70;;;0.70;;
49444;SDS011;35323;43.080;-81.378;2023-05-10T13:51:06;1.45;;;0.95;;
49444;SDS011;35323;43.080;-81.378;2023-05-10T13:53:34;4.35;;;1.80;;
49444;SDS011;35323;43.080;-81.378;2023-05-10T13:56:01;1.58;;;1.48;;
49444;SDS011;35323;43.080;-81.378;2023-05-10T13:58:29;4.60;;;1.25;;
49444;SDS011;35323;43.080;-81.378;2023-05-10T14:01:00;1.42;;;1.17;;
49444;SDS011;35323;43.080;-81.378;2023-05-10T14:03:28;4.10;;;1.58;;
49444;SDS011;35323;43.080;-81.378;2023-05-10T14:05:58;2.67;;;1.08;;
49444;SDS011;35323;43.080;-81.378;2023-05-10T14:08:26;3.30;;;1.77;;
49444;SDS011;35323;43.080;-81.378;2023-05-10T14:10:54;2.38;;;1.02;;
49444;SDS011;35323;43.080;-81.378;2023-05-10T14:13:24;5.10;;;1.88;;
49444;SDS011;35323;43.080;-81.378;2023-05-10T14:15:52;1.77;;;1.05;;
49444;SDS011;35323;43.080;-81.378;2023-05-10T14:18:20;4.35;;;1.92;;
49444;SDS011;35323;43.080;-81.378;2023-05-10T14:20:48;1.85;;;0.90;;
49444;SDS011;35323;43.080;-81.378;2023-05-10T14:23:15;3.28;;;1.75;;
49444;SDS011;35323;43.080;-81.378;2023-05-10T14:25:43;2.85;;;1.02;;
49444;SDS011;35323;43.080;-81.378;2023-05-10T14:28:11;2.55;;;1.08;;
49444;SDS011;35323;43.080;-81.378;2023-05-10T14:30:39;1.55;;;1.30;;
49444;SDS011;35323;43.080;-81.378;2023-05-10T14:33:06;3.05;;;1.75;;
49444;SDS011;35323;43.080;-81.378;2023-05-10T14:35:34;1.92;;;1.13;;
49444;SDS011;35323;43.080;-81.378;2023-05-10T14:38:02;1.42;;;1.13;;
49444;SDS011;35323;43.080;-81.378;2023-05-10T14:40:33;2.55;;;1.67;;
49444;SDS011;35323;43.080;-81.378;2023-05-10T14:43:01;2.85;;;1.33;;
49444;SDS011;35323;43.080;-81.378;2023-05-10T14:45:29;1.42;;;1.33;;
49444;SDS011;35323;43.080;-81.378;2023-05-10T14:47:57;1.30;;;1.17;;
49444;SDS011;35323;43.080;-81.378;2023-05-10T14:50:24;2.13;;;1.38;;
49444;SDS011;35323;43.080;-81.378;2023-05-10T14:53:03;2.28;;;1.25;;
49444;SDS011;35323;43.080;-81.378;2023-05-10T14:55:30;3.70;;;1.38;;
49444;SDS011;35323;43.080;-81.378;2023-05-10T14:57:58;1.95;;;1.52;;
49444;SDS011;35323;43.080;-81.378;2023-05-10T15:00:26;2.75;;;1.40;;